Nearby METAR Reports

 

KTCM - Tacoma,Washington,
Updated: 10/19/2018 11:58pm
Mist, Clear
Mist, Clear
 Wind from calm
Wind: Calm
Temperature: 39°F , 4°C
Dew Point: 39°F , 4°C
Humidity: 100%
Barometer: 30.25 inHg , 1024.4 hPa
Summary: Mist
Clouds: Clear
Visibility: 4 miles , 6 km
2018/10/20 06:58 KTCM 200658Z 00000KT 4SM BR CLR 04/04 A3025 RMK AO2A SLP249 T00380038 $
KSEA - Seattle,Washington,
Updated: 10/19/2018 11:53pm
Mist, Clear
Mist, Clear
 Wind from calm
Wind: Calm
Temperature: 48°F , 9°C
Dew Point: 45°F , 7°C
Humidity: 87%
Barometer: 30.25 inHg , 1024.4 hPa
Summary: Mist
Clouds: Clear
Visibility: 6 miles , 10 km
2018/10/20 06:53 KSEA 200653Z 00000KT 6SM BR CLR 09/07 A3025 RMK AO2 SLP250 T00940072
 
KOLM - Olympia,Washington,
Updated: 10/19/2018 11:54pm
Fog, Overcast
Fog, Overcast
 Wind from calm
Wind: Calm
Temperature: 41°F , 5°C
Dew Point: 41°F , 5°C
Humidity: 100%
Barometer: 30.25 inHg , 1024.4 hPa
Summary: Fog
Clouds: Overcast
Visibility: 1/4 mile , 0.4 km
Cloud details: Overcast 100 ft
2018/10/20 06:54 KOLM 200654Z AUTO 00000KT 1/4SM FG VV001 05/05 A3025 RMK AO2 SLP246 T00500050
KHQM - Hoquiam,Washington,
Updated: 10/20/2018 12:10am
Mist, Clear
Mist, Clear
 Wind from calm
Wind: Calm
Temperature: 45°F , 7°C
Dew Point: 43°F , 6°C
Humidity: 93%
Barometer: 30.26 inHg , 1024.7 hPa
Summary: Mist
Clouds: Clear
Visibility: 4 miles , 6 km
2018/10/20 07:10 KHQM 200710Z AUTO 00000KT 4SM BR CLR 07/06 A3026 RMK AO2 T00670056
 
KGEG - Spokane,Washington,
Updated: 10/19/2018 11:53pm
Clear
Clear
 Wind from calm
Wind: Calm
Temperature: 43°F , 6°C
Dew Point: 32°F , 0°C
Humidity: 66%
Barometer: 30.29 inHg , 1025.7 hPa
Clouds: Clear
Visibility: 9 miles , 14 km
2018/10/20 06:53 KGEG 200653Z 00000KT 9SM CLR 06/00 A3029 RMK AO2 SLP263 T00610000
KBLI - Bellingham,Washington,
Updated: 10/19/2018 11:53pm
Clear
Clear
 Wind from SSE
Wind: SSE 5 mph , 7 km/h
Temperature: 48°F , 9°C
Wind Chill: 46°F , 8°C
Dew Point: 45°F , 7°C
Humidity: 87%
Barometer: 30.24 inHg , 1024 hPa
Clouds: Clear
Visibility: 10 miles , 16 km
2018/10/20 06:53 KBLI 200653Z AUTO 16004KT 10SM CLR 09/07 A3024 RMK AO2 SLP248 T00890072